No particular awareness of the weather is required.    There are no Weather-warnings


Meteo18 Weather Cam more information Meteo18 Weather Cam


Thunder radar more information blitzortung!


Rain radar more information rain snow radar


Visit our other weather sites:

Template documentation
and downloads

And another site



Weather Underground History page Text

Daily Summary for November 18, 2016 Units:  Metric    English   Both
« Previous Day
Next Day »
Daily Weekly Monthly Yearly Custom
  High: Low: Average:
Temperature: 12.7 °C 5.9 °C 9.6 °C
Dew Point: 10.1 °C 4.5 °C 7.4 °C
Humidity: 92 % 75 % 86 %
Wind Speed: 38.6 km/h 3.2 km/h 17 km/h
Wind Gust: 54.7 km/h - -
Wind:- - SW
Pressure: 1010.4 hPa 1004.3 hPa -
Precipitation: 6.6 mm    
Historical Graphs
 
 
Tabular Data for November 18, 2016
Time Temperature Dew Point Pressure Wind Wind Speed Wind Gust Humidity Rainfall Rate (Hourly)
00:02 11.2 °C 9.9 °C 1007.7 hPa SSW 30.6 km/h 37.0 km/h 92 % 0.0 mm
00:07 11.2 °C 9.9 °C 1007.7 hPa WSW 24.1 km/h 40.2 km/h 92 % 0.0 mm
00:12 11.3 °C 9.9 °C 1007.7 hPa SW 19.3 km/h 40.2 km/h 91 % 0.0 mm
00:17 11.3 °C 9.9 °C 1007.3 hPa SW 29.0 km/h 40.2 km/h 91 % 0.0 mm
00:22 11.4 °C 10.0 °C 1007.3 hPa SW 29.0 km/h 51.5 km/h 91 % 0.0 mm
00:27 11.4 °C 9.8 °C 1007.7 hPa South 17.7 km/h 51.5 km/h 90 % 0.0 mm
00:32 11.4 °C 9.8 °C 1007.3 hPa SW 17.7 km/h 53.1 km/h 90 % 0.0 mm
00:42 11.6 °C 10.0 °C 1007.3 hPa WSW 29.0 km/h 40.2 km/h 90 % 0.0 mm
00:47 11.5 °C 10.1 °C 1007.3 hPa SSW 30.6 km/h 40.2 km/h 91 % 0.0 mm
00:52 11.3 °C 10.0 °C 1007.3 hPa SSW 35.4 km/h 40.2 km/h 92 % 0.0 mm
01:02 11.3 °C 10.0 °C 1007.3 hPa SW 19.3 km/h 40.2 km/h 92 % 0.0 mm
01:12 11.4 °C 10.0 °C 1007.0 hPa SW 25.7 km/h 43.4 km/h 91 % 0.0 mm
01:17 11.4 °C 10.0 °C 1007.0 hPa SSW 24.1 km/h 43.4 km/h 91 % 0.0 mm
01:22 11.4 °C 10.0 °C 1007.0 hPa SW 20.9 km/h 46.7 km/h 91 % 0.0 mm
01:32 11.4 °C 10.0 °C 1007.0 hPa SW 20.9 km/h 46.7 km/h 91 % 0.0 mm
01:37 11.4 °C 10.0 °C 1006.7 hPa SW 20.9 km/h 38.6 km/h 91 % 0.0 mm
01:42 11.4 °C 10.0 °C 1007.0 hPa WSW 27.4 km/h 38.6 km/h 91 % 0.0 mm
01:47 11.4 °C 9.8 °C 1007.0 hPa SSE 14.5 km/h 41.8 km/h 90 % 0.0 mm
01:52 11.4 °C 9.8 °C 1006.7 hPa SW 16.1 km/h 41.8 km/h 90 % 0.0 mm
01:57 11.5 °C 9.9 °C 1006.7 hPa SW 17.7 km/h 41.8 km/h 90 % 0.0 mm
02:02 11.4 °C 9.8 °C 1006.7 hPa South 16.1 km/h 41.8 km/h 90 % 0.0 mm
02:07 11.3 °C 9.7 °C 1006.7 hPa SW 29.0 km/h 35.4 km/h 90 % 0.0 mm
02:12 11.4 °C 9.8 °C 1006.7 hPa South 17.7 km/h 45.1 km/h 90 % 0.0 mm
02:17 11.5 °C 9.7 °C 1006.7 hPa SW 12.9 km/h 45.1 km/h 89 % 0.0 mm
02:22 11.7 °C 9.8 °C 1006.7 hPa SSW 30.6 km/h 45.1 km/h 88 % 0.0 mm
02:27 11.7 °C 9.8 °C 1006.3 hPa SSW 25.7 km/h 41.8 km/h 88 % 0.0 mm
02:32 11.7 °C 9.8 °C 1006.3 hPa SW 25.7 km/h 41.8 km/h 88 % 0.0 mm
02:37 11.6 °C 9.8 °C 1006.3 hPa SW 19.3 km/h 41.8 km/h 89 % 0.0 mm
02:42 11.6 °C 9.8 °C 1006.0 hPa SSW 29.0 km/h 33.8 km/h 89 % 0.0 mm
02:47 11.5 °C 9.7 °C 1006.0 hPa SW 30.6 km/h 33.8 km/h 89 % 0.0 mm
02:52 11.5 °C 9.7 °C 1005.6 hPa South 22.5 km/h 33.8 km/h 89 % 0.0 mm
02:57 11.4 °C 9.7 °C 1006.0 hPa SW 19.3 km/h 35.4 km/h 89 % 0.0 mm
03:02 11.5 °C 9.6 °C 1006.0 hPa SW 17.7 km/h 35.4 km/h 88 % 0.0 mm
03:12 11.3 °C 9.6 °C 1005.6 hPa SW 16.1 km/h 41.8 km/h 89 % 0.0 mm
03:17 11.3 °C 9.6 °C 1005.6 hPa SSW 12.9 km/h 35.4 km/h 89 % 0.0 mm
03:22 11.3 °C 9.6 °C 1005.6 hPa SSW 25.7 km/h 30.6 km/h 89 % 0.0 mm
03:27 11.3 °C 9.4 °C 1005.3 hPa SW 19.3 km/h 35.4 km/h 88 % 0.0 mm
03:32 11.3 °C 9.4 °C 1005.3 hPa SSW 17.7 km/h 35.4 km/h 88 % 0.0 mm
03:37 11.3 °C 9.4 °C 1005.3 hPa WSW 24.1 km/h 35.4 km/h 88 % 0.0 mm
03:42 11.3 °C 9.4 °C 1005.3 hPa SW 22.5 km/h 38.6 km/h 88 % 0.0 mm
03:52 11.3 °C 9.4 °C 1005.0 hPa SSW 22.5 km/h 38.6 km/h 88 % 0.0 mm
04:02 11.4 °C 9.3 °C 1005.0 hPa SSW 16.1 km/h 35.4 km/h 87 % 0.0 mm
04:12 11.5 °C 9.4 °C 1004.6 hPa SSW 25.7 km/h 38.6 km/h 87 % 0.0 mm
04:17 11.5 °C 9.4 °C 1004.6 hPa SSW 38.6 km/h 40.2 km/h 87 % 0.0 mm
04:22 11.6 °C 9.5 °C 1004.6 hPa SSW 32.2 km/h 40.2 km/h 87 % 0.0 mm
04:32 11.8 °C 9.5 °C 1004.3 hPa SSW 29.0 km/h 40.2 km/h 86 % 0.0 mm
04:37 11.8 °C 9.4 °C 1004.3 hPa SW 24.1 km/h 40.2 km/h 85 % 0.0 mm
04:42 11.9 °C 9.5 °C 1004.6 hPa SSW 17.7 km/h 40.2 km/h 85 % 0.0 mm
04:47 12.0 °C 9.6 °C 1004.3 hPa SSW 32.2 km/h 40.2 km/h 85 % 0.0 mm
04:52 11.9 °C 9.5 °C 1004.3 hPa SSW 24.1 km/h 40.2 km/h 85 % 0.0 mm
04:57 12.0 °C 9.6 °C 1004.3 hPa SW 24.1 km/h 40.2 km/h 85 % 0.0 mm
05:02 12.1 °C 9.7 °C 1004.3 hPa SW 32.2 km/h 40.2 km/h 85 % 0.0 mm
05:12 12.3 °C 9.9 °C 1004.3 hPa SSW 24.1 km/h 40.2 km/h 85 % 0.0 mm
05:17 12.3 °C 9.9 °C 1004.3 hPa SW 25.7 km/h 45.1 km/h 85 % 0.0 mm
05:22 12.3 °C 9.9 °C 1004.3 hPa SSW 29.0 km/h 45.1 km/h 85 % 0.0 mm
05:32 12.5 °C 9.9 °C 1004.3 hPa SW 16.1 km/h 48.3 km/h 84 % 0.0 mm
05:42 12.7 °C 9.9 °C 1004.3 hPa SSW 30.6 km/h 48.3 km/h 83 % 0.0 mm
05:47 12.7 °C 9.9 °C 1004.3 hPa SSW 27.4 km/h 41.8 km/h 83 % 0.0 mm
05:52 12.7 °C 9.9 °C 1004.3 hPa South 32.2 km/h 41.8 km/h 83 % 0.0 mm
05:57 12.7 °C 9.9 °C 1004.3 hPa SW 22.5 km/h 46.7 km/h 83 % 0.0 mm
06:07 12.7 °C 9.9 °C 1004.3 hPa South 24.1 km/h 49.9 km/h 83 % 0.0 mm
06:12 12.7 °C 9.9 °C 1004.3 hPa WSW 19.3 km/h 49.9 km/h 83 % 0.0 mm
06:17 12.7 °C 9.9 °C 1004.6 hPa SSW 24.1 km/h 49.9 km/h 83 % 0.0 mm
06:22 12.4 °C 10.1 °C 1004.6 hPa WSW 24.1 km/h 49.9 km/h 86 % 0.0 mm
06:32 11.9 °C 10.1 °C 1004.6 hPa WSW 16.1 km/h 45.1 km/h 89 % 0.0 mm
06:42 11.8 °C 10.0 °C 1004.6 hPa SW 22.5 km/h 35.4 km/h 89 % 0.3 mm
06:47 11.9 °C 10.1 °C 1004.6 hPa SW 22.5 km/h 30.6 km/h 89 % 0.3 mm
06:52 11.9 °C 10.0 °C 1005.0 hPa SW 22.5 km/h 30.6 km/h 88 % 0.3 mm
07:02 11.8 °C 9.7 °C 1005.0 hPa WSW 16.1 km/h 38.6 km/h 87 % 0.3 mm
07:07 11.7 °C 9.6 °C 1005.0 hPa SSW 25.7 km/h 45.1 km/h 87 % 0.5 mm
07:12 11.6 °C 9.5 °C 1005.0 hPa West 14.5 km/h 45.1 km/h 87 % 0.5 mm
07:17 11.5 °C 9.4 °C 1005.0 hPa WNW 11.3 km/h 45.1 km/h 87 % 0.5 mm
07:22 11.6 °C 9.5 °C 1005.0 hPa WSW 24.1 km/h 45.1 km/h 87 % 0.5 mm
07:32 11.6 °C 9.5 °C 1005.0 hPa WSW 16.1 km/h 40.2 km/h 87 % 0.5 mm
07:42 11.4 °C 9.8 °C 1005.3 hPa SW 8.0 km/h 40.2 km/h 90 % 0.3 mm
07:52 10.9 °C 9.2 °C 1005.6 hPa WSW 20.9 km/h 32.2 km/h 89 % 0.5 mm
08:02 10.3 °C 8.6 °C 1005.6 hPa West 25.7 km/h 41.8 km/h 89 % 1.0 mm
08:12 10.0 °C 8.4 °C 1006.0 hPa WSW 17.7 km/h 43.4 km/h 90 % 0.8 mm
08:17 10.0 °C 8.4 °C 1006.0 hPa WSW 9.7 km/h 35.4 km/h 90 % 0.8 mm
08:22 10.0 °C 8.4 °C 1006.0 hPa WSW 17.7 km/h 35.4 km/h 90 % 0.8 mm
08:32 10.0 °C 8.6 °C 1006.0 hPa West 6.4 km/h 30.6 km/h 91 % 0.8 mm
08:42 9.9 °C 8.7 °C 1006.0 hPa SW 11.3 km/h 27.4 km/h 92 % 1.0 mm
08:52 10.1 °C 8.7 °C 1006.0 hPa WSW 16.1 km/h 20.9 km/h 91 % 0.5 mm
09:02 10.1 °C 8.5 °C 1006.3 hPa SW 12.9 km/h 25.7 km/h 90 % 0.3 mm
09:12 10.1 °C 8.5 °C 1006.7 hPa WSW 11.3 km/h 25.7 km/h 90 % 0.3 mm
09:17 10.0 °C 8.6 °C 1006.7 hPa SW 22.5 km/h 27.4 km/h 91 % 0.3 mm
09:22 9.9 °C 8.5 °C 1006.3 hPa WSW 14.5 km/h 27.4 km/h 91 % 0.3 mm
09:32 9.8 °C 8.2 °C 1006.3 hPa WSW 8.0 km/h 29.0 km/h 90 % 0.3 mm
09:42 9.7 °C 8.1 °C 1006.3 hPa WSW 22.5 km/h 29.0 km/h 90 % 0.3 mm
09:52 9.7 °C 8.1 °C 1006.7 hPa WSW 19.3 km/h 27.4 km/h 90 % 0.5 mm
09:57 9.7 °C 8.1 °C 1006.7 hPa WSW 22.5 km/h 27.4 km/h 90 % 0.5 mm
10:02 9.7 °C 8.0 °C 1006.7 hPa SSW 8.0 km/h 27.4 km/h 89 % 0.5 mm
10:12 9.6 °C 7.9 °C 1006.7 hPa SW 17.7 km/h 29.0 km/h 89 % 0.5 mm
10:22 9.4 °C 7.8 °C 1007.0 hPa SW 14.5 km/h 29.0 km/h 90 % 0.5 mm
10:32 9.2 °C 7.8 °C 1007.3 hPa WSW 20.9 km/h 27.4 km/h 91 % 0.5 mm
10:42 9.0 °C 7.6 °C 1007.3 hPa WSW 12.9 km/h 30.6 km/h 91 % 0.8 mm
10:52 8.9 °C 7.5 °C 1007.7 hPa SW 20.9 km/h 29.0 km/h 91 % 0.8 mm
11:02 9.0 °C 7.8 °C 1007.7 hPa SW 11.3 km/h 30.6 km/h 92 % 1.0 mm
11:07 9.1 °C 7.7 °C 1007.7 hPa SW 17.7 km/h 25.7 km/h 91 % 1.0 mm
11:17 9.3 °C 7.9 °C 1007.7 hPa WSW 14.5 km/h 25.7 km/h 91 % 0.8 mm
11:22 9.3 °C 7.7 °C 1007.7 hPa SSW 9.7 km/h 25.7 km/h 90 % 0.8 mm
11:32 9.4 °C 7.8 °C 1007.7 hPa SW 14.5 km/h 25.7 km/h 90 % 0.5 mm
11:42 9.6 °C 7.9 °C 1007.7 hPa West 8.0 km/h 27.4 km/h 89 % 0.5 mm
11:52 9.9 °C 8.2 °C 1007.7 hPa SW 19.3 km/h 24.1 km/h 89 % 0.3 mm
12:02 10.3 °C 8.6 °C 1007.7 hPa WSW 11.3 km/h 24.1 km/h 89 % 0.0 mm
12:12 10.3 °C 8.1 °C 1007.7 hPa SW 17.7 km/h 20.9 km/h 86 % 0.0 mm
12:17 10.5 °C 8.1 °C 1007.3 hPa SW 6.4 km/h 20.9 km/h 85 % 0.0 mm
12:22 10.6 °C 7.8 °C 1007.7 hPa WSW 9.7 km/h 25.7 km/h 83 % 0.0 mm
12:27 10.7 °C 7.8 °C 1007.7 hPa SW 11.3 km/h 25.7 km/h 82 % 0.0 mm
12:32 10.9 °C 8.1 °C 1007.7 hPa West 8.0 km/h 38.6 km/h 83 % 0.0 mm
12:37 11.1 °C 7.6 °C 1007.7 hPa WSW 22.5 km/h 38.6 km/h 79 % 0.0 mm
12:42 11.2 °C 7.1 °C 1007.7 hPa SW 27.4 km/h 27.4 km/h 76 % 0.0 mm
12:47 10.9 °C 6.8 °C 1008.0 hPa West 20.9 km/h 30.6 km/h 76 % 0.0 mm
12:52 10.8 °C 6.9 °C 1008.0 hPa WSW 12.9 km/h 38.6 km/h 77 % 0.0 mm
12:57 10.7 °C 7.2 °C 1008.0 hPa SSW 9.7 km/h 38.6 km/h 79 % 0.0 mm
13:02 10.6 °C 7.1 °C 1008.0 hPa WSW 29.0 km/h 38.6 km/h 79 % 0.0 mm
13:07 10.5 °C 7.0 °C 1007.7 hPa West 22.5 km/h 37.0 km/h 79 % 0.0 mm
13:12 10.4 °C 7.1 °C 1007.7 hPa WSW 19.3 km/h 37.0 km/h 80 % 0.0 mm
13:17 10.4 °C 7.3 °C 1007.7 hPa WSW 9.7 km/h 33.8 km/h 81 % 0.0 mm
13:22 10.4 °C 7.1 °C 1007.7 hPa WSW 6.4 km/h 33.8 km/h 80 % 0.0 mm
13:27 10.4 °C 7.1 °C 1008.0 hPa West 9.7 km/h 29.0 km/h 80 % 0.0 mm
13:32 10.6 °C 7.5 °C 1007.3 hPa SW 19.3 km/h 29.0 km/h 81 % 0.0 mm
13:37 10.8 °C 7.1 °C 1007.3 hPa WSW 11.3 km/h 25.7 km/h 78 % 0.0 mm
13:42 10.8 °C 7.1 °C 1007.7 hPa WSW 22.5 km/h 35.4 km/h 78 % 0.0 mm
13:47 10.7 °C 6.8 °C 1007.7 hPa West 22.5 km/h 35.4 km/h 77 % 0.0 mm
13:52 10.6 °C 6.7 °C 1007.7 hPa WSW 14.5 km/h 35.4 km/h 77 % 0.0 mm
14:02 10.7 °C 6.6 °C 1008.0 hPa WSW 20.9 km/h 35.4 km/h 76 % 0.0 mm
14:07 10.8 °C 6.7 °C 1008.0 hPa WSW 22.5 km/h 35.4 km/h 76 % 0.0 mm
14:12 10.6 °C 6.4 °C 1007.7 hPa WSW 16.1 km/h 38.6 km/h 75 % 0.0 mm
14:17 10.4 °C 6.4 °C 1007.7 hPa West 14.5 km/h 40.2 km/h 76 % 0.0 mm
14:22 10.3 °C 6.3 °C 1008.0 hPa WSW 32.2 km/h 40.2 km/h 76 % 0.0 mm
14:27 10.3 °C 6.6 °C 1008.4 hPa WSW 16.1 km/h 40.2 km/h 78 % 0.0 mm
14:32 10.3 °C 6.3 °C 1008.0 hPa West 8.0 km/h 40.2 km/h 76 % 0.0 mm
14:37 10.3 °C 6.6 °C 1008.0 hPa SW 12.9 km/h 33.8 km/h 78 % 0.0 mm
14:42 10.3 °C 6.1 °C 1008.0 hPa WSW 12.9 km/h 32.2 km/h 75 % 0.0 mm
14:47 10.5 °C 6.4 °C 1008.0 hPa WSW 14.5 km/h 33.8 km/h 76 % 0.0 mm
14:52 10.6 °C 6.5 °C 1008.0 hPa WSW 14.5 km/h 33.8 km/h 76 % 0.0 mm
14:57 10.6 °C 6.5 °C 1008.0 hPa WSW 12.9 km/h 32.2 km/h 76 % 0.0 mm
15:02 10.4 °C 6.4 °C 1008.0 hPa SSW 11.3 km/h 32.2 km/h 76 % 0.0 mm
15:07 10.3 °C 6.3 °C 1008.0 hPa SW 24.1 km/h 32.2 km/h 76 % 0.0 mm
15:12 10.3 °C 6.3 °C 1008.0 hPa West 11.3 km/h 30.6 km/h 76 % 0.0 mm
15:17 10.3 °C 6.3 °C 1008.0 hPa SW 27.4 km/h 29.0 km/h 76 % 0.0 mm
15:22 10.3 °C 6.3 °C 1008.0 hPa WSW 22.5 km/h 29.0 km/h 76 % 0.0 mm
15:32 10.6 °C 6.4 °C 1008.0 hPa WSW 16.1 km/h 30.6 km/h 75 % 0.0 mm
15:37 10.6 °C 6.4 °C 1008.4 hPa WSW 25.7 km/h 29.0 km/h 75 % 0.0 mm
15:42 10.6 °C 6.5 °C 1008.4 hPa SW 16.1 km/h 29.0 km/h 76 % 0.0 mm
15:47 10.6 °C 6.5 °C 1008.4 hPa WSW 14.5 km/h 30.6 km/h 76 % 0.0 mm
15:52 10.4 °C 6.4 °C 1008.4 hPa West 9.7 km/h 30.6 km/h 76 % 0.0 mm
16:02 9.9 °C 5.9 °C 1009.4 hPa WSW 16.1 km/h 49.9 km/h 76 % 0.0 mm
16:07 8.1 °C 5.0 °C 1009.4 hPa West 29.0 km/h 54.7 km/h 81 % 0.0 mm
16:12 7.0 °C 4.7 °C 1009.4 hPa West 14.5 km/h 54.7 km/h 85 % 0.3 mm
16:22 6.7 °C 4.7 °C 1008.7 hPa WSW 12.9 km/h 54.7 km/h 87 % 0.3 mm
16:32 7.3 °C 4.8 °C 1008.7 hPa WSW 16.1 km/h 29.0 km/h 84 % 0.5 mm
16:37 7.6 °C 4.9 °C 1008.7 hPa West 17.7 km/h 29.0 km/h 83 % 0.5 mm
16:42 7.8 °C 5.1 °C 1008.7 hPa West 12.9 km/h 29.0 km/h 83 % 0.5 mm
16:47 7.8 °C 5.3 °C 1009.0 hPa WSW 19.3 km/h 29.0 km/h 84 % 0.5 mm
16:57 7.9 °C 5.0 °C 1009.4 hPa WSW 17.7 km/h 41.8 km/h 82 % 0.5 mm
17:02 7.6 °C 4.9 °C 1009.4 hPa NW 29.0 km/h 41.8 km/h 83 % 0.5 mm
17:07 7.5 °C 5.1 °C 1009.0 hPa West 11.3 km/h 48.3 km/h 85 % 0.5 mm
17:17 7.6 °C 5.1 °C 1009.0 hPa SW 14.5 km/h 35.4 km/h 84 % 0.5 mm
17:22 7.7 °C 5.2 °C 1009.0 hPa West 11.3 km/h 35.4 km/h 84 % 0.5 mm
17:32 7.7 °C 5.2 °C 1009.4 hPa SW 8.0 km/h 33.8 km/h 84 % 0.3 mm
17:42 7.6 °C 5.1 °C 1009.4 hPa WSW 11.3 km/h 29.0 km/h 84 % 0.3 mm
17:47 7.6 °C 5.1 °C 1009.4 hPa SW 11.3 km/h 19.3 km/h 84 % 0.3 mm
17:52 7.6 °C 4.9 °C 1009.4 hPa SW 14.5 km/h 19.3 km/h 83 % 0.3 mm
17:57 7.6 °C 4.9 °C 1009.4 hPa SW 8.0 km/h 19.3 km/h 83 % 0.3 mm
18:02 7.6 °C 4.9 °C 1009.4 hPa WSW 4.8 km/h 19.3 km/h 83 % 0.0 mm
18:07 7.5 °C 4.8 °C 1009.4 hPa SW 14.5 km/h 19.3 km/h 83 % 0.0 mm
18:17 7.3 °C 4.9 °C 1009.4 hPa SW 8.0 km/h 19.3 km/h 85 % 0.0 mm
18:22 7.3 °C 5.1 °C 1009.4 hPa SSW 9.7 km/h 19.3 km/h 86 % 0.0 mm
18:27 7.2 °C 5.0 °C 1009.4 hPa West 4.8 km/h 19.3 km/h 86 % 0.0 mm
18:32 7.1 °C 5.1 °C 1009.4 hPa SSW 9.7 km/h 17.7 km/h 87 % 0.0 mm
18:42 6.9 °C 5.1 °C 1009.4 hPa SSW 9.7 km/h 17.7 km/h 88 % 0.0 mm
18:47 6.9 °C 5.1 °C 1009.4 hPa SW 11.3 km/h 17.7 km/h 88 % 0.0 mm
18:52 6.9 °C 5.2 °C 1009.4 hPa SW 11.3 km/h 17.7 km/h 89 % 0.0 mm
18:57 6.8 °C 5.1 °C 1009.7 hPa WSW 8.0 km/h 17.7 km/h 89 % 0.0 mm
19:02 6.8 °C 5.1 °C 1009.4 hPa SW 9.7 km/h 17.7 km/h 89 % 0.0 mm
19:12 6.9 °C 5.1 °C 1009.7 hPa WSW 9.7 km/h 17.7 km/h 88 % 0.0 mm
19:17 7.0 °C 5.1 °C 1009.7 hPa SW 12.9 km/h 22.5 km/h 88 % 0.0 mm
19:27 6.9 °C 5.1 °C 1009.7 hPa SW 6.4 km/h 22.5 km/h 88 % 0.0 mm
19:32 6.9 °C 5.1 °C 1009.7 hPa WSW 14.5 km/h 22.5 km/h 88 % 0.0 mm
19:37 6.9 °C 5.1 °C 1009.7 hPa SSW 6.4 km/h 22.5 km/h 88 % 0.0 mm
19:42 6.9 °C 5.1 °C 1009.7 hPa SW 11.3 km/h 22.5 km/h 88 % 0.0 mm
19:47 6.9 °C 5.1 °C 1009.7 hPa SW 19.3 km/h 22.5 km/h 88 % 0.0 mm
19:52 6.9 °C 5.1 °C 1009.7 hPa SW 9.7 km/h 22.5 km/h 88 % 0.0 mm
19:57 6.8 °C 5.0 °C 1009.7 hPa SW 4.8 km/h 25.7 km/h 88 % 0.0 mm
20:02 6.8 °C 5.0 °C 1009.7 hPa South 17.7 km/h 25.7 km/h 88 % 0.0 mm
20:07 6.9 °C 5.1 °C 1009.7 hPa SW 9.7 km/h 25.7 km/h 88 % 0.0 mm
20:12 6.9 °C 5.1 °C 1009.7 hPa SW 9.7 km/h 25.7 km/h 88 % 0.0 mm
20:17 6.9 °C 4.9 °C 1009.7 hPa SW 11.3 km/h 25.7 km/h 87 % 0.0 mm
20:27 7.0 °C 5.0 °C 1009.7 hPa SW 9.7 km/h 24.1 km/h 87 % 0.0 mm
20:32 7.0 °C 5.0 °C 1009.7 hPa SW 16.1 km/h 24.1 km/h 87 % 0.0 mm
20:37 6.9 °C 4.9 °C 1009.4 hPa WSW 3.2 km/h 25.7 km/h 87 % 0.0 mm
20:42 7.0 °C 5.0 °C 1009.4 hPa SW 16.1 km/h 25.7 km/h 87 % 0.0 mm
20:47 7.0 °C 4.8 °C 1009.4 hPa WSW 14.5 km/h 25.7 km/h 86 % 0.0 mm
20:57 6.9 °C 4.9 °C 1009.4 hPa SW 11.3 km/h 24.1 km/h 87 % 0.0 mm
21:02 6.9 °C 4.9 °C 1009.4 hPa SW 16.1 km/h 24.1 km/h 87 % 0.0 mm
21:12 7.0 °C 4.8 °C 1009.7 hPa SW 8.0 km/h 20.9 km/h 86 % 0.0 mm
21:17 7.0 °C 4.8 °C 1009.7 hPa SSW 9.7 km/h 20.9 km/h 86 % 0.0 mm
21:22 6.9 °C 4.7 °C 1009.7 hPa SW 16.1 km/h 20.9 km/h 86 % 0.0 mm
21:27 7.0 °C 4.8 °C 1009.7 hPa SW 17.7 km/h 20.9 km/h 86 % 0.0 mm
21:32 7.0 °C 5.0 °C 1009.7 hPa SW 16.1 km/h 20.9 km/h 87 % 0.0 mm
21:37 7.0 °C 5.0 °C 1009.7 hPa SSW 6.4 km/h 20.9 km/h 87 % 0.0 mm
21:42 6.8 °C 5.0 °C 1010.0 hPa SSW 12.9 km/h 20.9 km/h 88 % 0.0 mm
21:47 6.7 °C 5.0 °C 1010.0 hPa South 9.7 km/h 19.3 km/h 89 % 0.0 mm
22:02 6.6 °C 5.1 °C 1009.7 hPa SW 4.8 km/h 17.7 km/h 90 % 0.0 mm
22:12 6.7 °C 5.3 °C 1010.0 hPa SSW 14.5 km/h 16.1 km/h 91 % 0.0 mm
22:17 6.7 °C 5.3 °C 1010.0 hPa SSW 14.5 km/h 16.1 km/h 91 % 0.0 mm
22:27 6.8 °C 5.4 °C 1010.0 hPa SSW 11.3 km/h 17.7 km/h 91 % 0.3 mm
22:32 6.8 °C 5.4 °C 1010.0 hPa SSW 11.3 km/h 17.7 km/h 91 % 0.3 mm
22:37 6.9 °C 5.5 °C 1010.0 hPa WSW 12.9 km/h 22.5 km/h 91 % 0.3 mm
22:42 6.9 °C 5.5 °C 1010.0 hPa SW 14.5 km/h 22.5 km/h 91 % 0.3 mm
22:47 6.8 °C 5.4 °C 1010.0 hPa West 12.9 km/h 24.1 km/h 91 % 0.5 mm
22:52 6.7 °C 5.5 °C 1010.4 hPa WSW 14.5 km/h 24.1 km/h 92 % 0.5 mm
22:57 6.6 °C 5.4 °C 1010.0 hPa SSW 6.4 km/h 20.9 km/h 92 % 0.8 mm
23:02 6.6 °C 5.4 °C 1010.0 hPa WSW 8.0 km/h 20.9 km/h 92 % 0.8 mm
23:12 6.4 °C 5.0 °C 1010.0 hPa WNW 14.5 km/h 24.1 km/h 91 % 1.3 mm
23:17 6.3 °C 4.6 °C 1010.0 hPa SW 19.3 km/h 30.6 km/h 89 % 1.3 mm
23:22 6.2 °C 4.7 °C 1010.0 hPa WSW 11.3 km/h 30.6 km/h 90 % 1.5 mm
23:27 6.1 °C 4.7 °C 1009.7 hPa SW 6.4 km/h 32.2 km/h 91 % 1.8 mm
23:32 5.9 °C 4.5 °C 1009.7 hPa SW 9.7 km/h 32.2 km/h 91 % 1.8 mm
23:37 5.9 °C 4.5 °C 1009.7 hPa SW 11.3 km/h 20.9 km/h 91 % 2.0 mm
23:42 5.9 °C 4.7 °C 1010.0 hPa WSW 11.3 km/h 20.9 km/h 92 % 2.3 mm
23:47 5.9 °C 4.7 °C 1010.0 hPa WSW 14.5 km/h 16.1 km/h 92 % 2.3 mm
23:52 6.0 °C 4.8 °C 1010.0 hPa West 4.8 km/h 16.1 km/h 92 % 2.5 mm
Meteo18
Compliments of Weather Underground - 4 mb

Script developed by  Jim McMurry - jmcmurry@mwt.net Adapted for the template by  Wim van der Kuil - Leuven-Template.eu

You find our weather info also at:

European Weather Network

Weather Underground

Equipment we use:

Weather-station
Davis Vue

Weather-program
Meteohub

Weather-server
Raspberry PI 2 B+

Provider
1 and 1

Davis Vue

Meteohub

Raspberry PI 2 B+

1 and 1